sensor_id;sensor_type;location;lat;lon;timestamp;P1;durP1;ratioP1;P2;durP2;ratioP2
6667;SDS011;3370;47.712;9.082;2024-03-29T00:01:34;2.03;;;1.93;;
6667;SDS011;3370;47.712;9.082;2024-03-29T00:04:20;1.20;;;1.20;;
6667;SDS011;3370;47.712;9.082;2024-03-29T00:07:07;1.70;;;1.60;;
6667;SDS011;3370;47.712;9.082;2024-03-29T00:09:54;1.30;;;1.30;;
6667;SDS011;3370;47.712;9.082;2024-03-29T00:12:40;1.50;;;1.40;;
6667;SDS011;3370;47.712;9.082;2024-03-29T00:15:26;1.60;;;1.53;;
6667;SDS011;3370;47.712;9.082;2024-03-29T00:18:12;1.43;;;1.43;;
6667;SDS011;3370;47.712;9.082;2024-03-29T00:20:59;1.80;;;1.30;;
6667;SDS011;3370;47.712;9.082;2024-03-29T00:23:45;1.87;;;1.77;;
6667;SDS011;3370;47.712;9.082;2024-03-29T00:26:32;1.50;;;1.50;;
6667;SDS011;3370;47.712;9.082;2024-03-29T00:29:18;1.30;;;1.30;;
6667;SDS011;3370;47.712;9.082;2024-03-29T00:32:04;1.70;;;1.60;;
6667;SDS011;3370;47.712;9.082;2024-03-29T00:34:51;1.57;;;1.43;;
6667;SDS011;3370;47.712;9.082;2024-03-29T00:37:39;1.60;;;1.50;;
6667;SDS011;3370;47.712;9.082;2024-03-29T00:40:25;1.53;;;1.43;;
6667;SDS011;3370;47.712;9.082;2024-03-29T00:43:11;1.37;;;1.27;;
6667;SDS011;3370;47.712;9.082;2024-03-29T00:45:58;1.40;;;1.30;;
6667;SDS011;3370;47.712;9.082;2024-03-29T00:48:44;1.70;;;1.60;;
6667;SDS011;3370;47.712;9.082;2024-03-29T00:51:32;1.43;;;1.23;;
6667;SDS011;3370;47.712;9.082;2024-03-29T00:54:18;1.40;;;1.30;;
6667;SDS011;3370;47.712;9.082;2024-03-29T00:57:05;1.43;;;1.33;;
6667;SDS011;3370;47.712;9.082;2024-03-29T00:59:52;1.07;;;1.07;;
6667;SDS011;3370;47.712;9.082;2024-03-29T01:02:38;1.30;;;1.30;;
6667;SDS011;3370;47.712;9.082;2024-03-29T01:05:24;1.50;;;1.40;;
6667;SDS011;3370;47.712;9.082;2024-03-29T01:08:10;1.33;;;1.20;;
6667;SDS011;3370;47.712;9.082;2024-03-29T01:10:56;1.30;;;1.30;;
6667;SDS011;3370;47.712;9.082;2024-03-29T01:13:42;1.37;;;1.27;;
6667;SDS011;3370;47.712;9.082;2024-03-29T01:16:28;1.83;;;1.60;;
6667;SDS011;3370;47.712;9.082;2024-03-29T01:19:14;1.50;;;1.40;;
6667;SDS011;3370;47.712;9.082;2024-03-29T01:22:00;1.13;;;1.10;;
6667;SDS011;3370;47.712;9.082;2024-03-29T01:24:46;1.47;;;1.40;;
6667;SDS011;3370;47.712;9.082;2024-03-29T01:27:32;4.30;;;1.40;;
6667;SDS011;3370;47.712;9.082;2024-03-29T01:30:19;1.90;;;1.60;;
6667;SDS011;3370;47.712;9.082;2024-03-29T01:33:06;1.20;;;1.20;;
6667;SDS011;3370;47.712;9.082;2024-03-29T01:35:52;2.80;;;1.43;;
6667;SDS011;3370;47.712;9.082;2024-03-29T01:38:38;1.53;;;1.43;;
6667;SDS011;3370;47.712;9.082;2024-03-29T01:41:24;1.70;;;1.50;;
6667;SDS011;3370;47.712;9.082;2024-03-29T01:44:12;1.40;;;1.30;;
6667;SDS011;3370;47.712;9.082;2024-03-29T01:46:59;1.70;;;1.60;;
6667;SDS011;3370;47.712;9.082;2024-03-29T01:49:45;1.53;;;1.43;;
6667;SDS011;3370;47.712;9.082;2024-03-29T01:52:31;1.63;;;1.50;;
6667;SDS011;3370;47.712;9.082;2024-03-29T01:55:18;1.50;;;1.40;;
6667;SDS011;3370;47.712;9.082;2024-03-29T01:58:04;2.50;;;1.60;;
6667;SDS011;3370;47.712;9.082;2024-03-29T02:00:56;1.40;;;1.30;;
6667;SDS011;3370;47.712;9.082;2024-03-29T02:03:45;1.50;;;1.50;;
6667;SDS011;3370;47.712;9.082;2024-03-29T02:06:32;1.80;;;1.70;;
6667;SDS011;3370;47.712;9.082;2024-03-29T02:09:18;1.73;;;1.63;;
6667;SDS011;3370;47.712;9.082;2024-03-29T02:12:05;2.50;;;1.57;;
6667;SDS011;3370;47.712;9.082;2024-03-29T02:14:51;1.50;;;1.50;;
6667;SDS011;3370;47.712;9.082;2024-03-29T02:17:37;2.07;;;1.93;;
6667;SDS011;3370;47.712;9.082;2024-03-29T02:20:23;1.83;;;1.73;;
6667;SDS011;3370;47.712;9.082;2024-03-29T02:23:14;1.80;;;1.70;;
6667;SDS011;3370;47.712;9.082;2024-03-29T02:26:05;3.00;;;1.67;;
6667;SDS011;3370;47.712;9.082;2024-03-29T02:28:51;5.90;;;5.40;;
6667;SDS011;3370;47.712;9.082;2024-03-29T02:31:37;1.30;;;1.27;;
6667;SDS011;3370;47.712;9.082;2024-03-29T02:34:23;1.33;;;1.33;;
6667;SDS011;3370;47.712;9.082;2024-03-29T02:37:09;2.20;;;2.07;;
6667;SDS011;3370;47.712;9.082;2024-03-29T02:39:55;1.50;;;1.40;;
6667;SDS011;3370;47.712;9.082;2024-03-29T02:42:42;1.33;;;1.33;;
6667;SDS011;3370;47.712;9.082;2024-03-29T02:45:28;1.47;;;1.40;;
6667;SDS011;3370;47.712;9.082;2024-03-29T02:48:14;1.50;;;1.50;;
6667;SDS011;3370;47.712;9.082;2024-03-29T02:51:00;2.40;;;1.90;;
6667;SDS011;3370;47.712;9.082;2024-03-29T02:53:46;1.40;;;1.40;;
6667;SDS011;3370;47.712;9.082;2024-03-29T02:56:32;2.20;;;1.23;;
6667;SDS011;3370;47.712;9.082;2024-03-29T02:59:18;1.50;;;1.50;;
6667;SDS011;3370;47.712;9.082;2024-03-29T03:02:04;1.33;;;1.33;;
6667;SDS011;3370;47.712;9.082;2024-03-29T03:04:50;4.60;;;1.80;;
6667;SDS011;3370;47.712;9.082;2024-03-29T03:07:36;1.40;;;1.40;;
6667;SDS011;3370;47.712;9.082;2024-03-29T03:10:47;1.87;;;1.43;;
6667;SDS011;3370;47.712;9.082;2024-03-29T03:13:44;1.70;;;1.60;;
6667;SDS011;3370;47.712;9.082;2024-03-29T03:16:30;4.60;;;1.90;;
6667;SDS011;3370;47.712;9.082;2024-03-29T03:19:16;2.63;;;2.50;;
6667;SDS011;3370;47.712;9.082;2024-03-29T03:22:02;1.80;;;1.70;;
6667;SDS011;3370;47.712;9.082;2024-03-29T03:24:48;2.57;;;2.33;;
6667;SDS011;3370;47.712;9.082;2024-03-29T03:27:34;1.70;;;1.60;;
6667;SDS011;3370;47.712;9.082;2024-03-29T03:30:20;1.63;;;1.53;;
6667;SDS011;3370;47.712;9.082;2024-03-29T03:33:07;1.33;;;1.30;;
6667;SDS011;3370;47.712;9.082;2024-03-29T03:35:53;2.00;;;1.90;;
6667;SDS011;3370;47.712;9.082;2024-03-29T03:38:39;1.73;;;1.60;;
6667;SDS011;3370;47.712;9.082;2024-03-29T03:41:26;1.90;;;1.53;;
6667;SDS011;3370;47.712;9.082;2024-03-29T03:44:12;3.73;;;1.60;;
6667;SDS011;3370;47.712;9.082;2024-03-29T03:46:58;1.90;;;1.80;;
6667;SDS011;3370;47.712;9.082;2024-03-29T03:49:44;2.20;;;2.10;;
6667;SDS011;3370;47.712;9.082;2024-03-29T03:52:30;1.90;;;1.80;;
6667;SDS011;3370;47.712;9.082;2024-03-29T03:55:16;4.13;;;1.47;;
6667;SDS011;3370;47.712;9.082;2024-03-29T03:58:02;2.20;;;2.10;;
6667;SDS011;3370;47.712;9.082;2024-03-29T04:00:49;2.03;;;1.93;;
6667;SDS011;3370;47.712;9.082;2024-03-29T04:03:35;2.03;;;1.93;;
6667;SDS011;3370;47.712;9.082;2024-03-29T04:06:21;2.83;;;2.37;;
6667;SDS011;3370;47.712;9.082;2024-03-29T04:09:07;2.30;;;2.10;;
6667;SDS011;3370;47.712;9.082;2024-03-29T04:11:53;2.10;;;2.00;;
6667;SDS011;3370;47.712;9.082;2024-03-29T04:14:39;3.17;;;2.00;;
6667;SDS011;3370;47.712;9.082;2024-03-29T04:17:25;2.00;;;1.90;;
6667;SDS011;3370;47.712;9.082;2024-03-29T04:20:12;2.07;;;1.97;;
6667;SDS011;3370;47.712;9.082;2024-03-29T04:22:58;2.30;;;2.10;;
6667;SDS011;3370;47.712;9.082;2024-03-29T04:25:51;2.30;;;1.73;;
6667;SDS011;3370;47.712;9.082;2024-03-29T04:28:38;2.50;;;2.40;;
6667;SDS011;3370;47.712;9.082;2024-03-29T04:31:24;2.57;;;2.00;;
6667;SDS011;3370;47.712;9.082;2024-03-29T04:34:10;2.20;;;2.10;;
6667;SDS011;3370;47.712;9.082;2024-03-29T04:36:56;2.20;;;2.00;;
6667;SDS011;3370;47.712;9.082;2024-03-29T04:39:42;2.10;;;1.90;;
6667;SDS011;3370;47.712;9.082;2024-03-29T04:42:29;1.90;;;1.80;;
6667;SDS011;3370;47.712;9.082;2024-03-29T04:45:15;2.20;;;2.00;;
6667;SDS011;3370;47.712;9.082;2024-03-29T04:48:01;2.07;;;1.97;;
6667;SDS011;3370;47.712;9.082;2024-03-29T04:50:48;2.10;;;2.00;;
6667;SDS011;3370;47.712;9.082;2024-03-29T04:53:37;4.43;;;2.30;;
6667;SDS011;3370;47.712;9.082;2024-03-29T04:56:24;2.10;;;1.80;;
6667;SDS011;3370;47.712;9.082;2024-03-29T04:59:10;2.00;;;1.80;;
6667;SDS011;3370;47.712;9.082;2024-03-29T05:01:59;2.70;;;2.47;;
6667;SDS011;3370;47.712;9.082;2024-03-29T05:04:45;2.47;;;2.27;;
6667;SDS011;3370;47.712;9.082;2024-03-29T05:07:31;2.93;;;2.80;;
6667;SDS011;3370;47.712;9.082;2024-03-29T05:10:17;2.20;;;2.10;;
6667;SDS011;3370;47.712;9.082;2024-03-29T05:13:03;2.37;;;2.20;;
6667;SDS011;3370;47.712;9.082;2024-03-29T05:15:49;2.70;;;2.20;;
6667;SDS011;3370;47.712;9.082;2024-03-29T05:18:36;3.20;;;2.90;;
6667;SDS011;3370;47.712;9.082;2024-03-29T05:21:22;2.80;;;2.40;;
6667;SDS011;3370;47.712;9.082;2024-03-29T05:24:08;2.73;;;2.37;;
6667;SDS011;3370;47.712;9.082;2024-03-29T05:26:54;2.40;;;2.30;;
6667;SDS011;3370;47.712;9.082;2024-03-29T05:29:40;3.77;;;2.97;;
6667;SDS011;3370;47.712;9.082;2024-03-29T05:32:27;9.40;;;2.60;;
6667;SDS011;3370;47.712;9.082;2024-03-29T05:35:14;3.40;;;3.10;;
6667;SDS011;3370;47.712;9.082;2024-03-29T05:38:00;2.90;;;2.70;;
6667;SDS011;3370;47.712;9.082;2024-03-29T05:40:47;3.10;;;2.83;;
6667;SDS011;3370;47.712;9.082;2024-03-29T05:43:33;3.50;;;3.20;;
6667;SDS011;3370;47.712;9.082;2024-03-29T05:46:19;2.70;;;2.20;;
6667;SDS011;3370;47.712;9.082;2024-03-29T05:49:05;4.17;;;2.60;;
6667;SDS011;3370;47.712;9.082;2024-03-29T05:51:52;2.20;;;2.10;;
6667;SDS011;3370;47.712;9.082;2024-03-29T05:54:38;3.23;;;2.10;;
6667;SDS011;3370;47.712;9.082;2024-03-29T05:57:24;2.50;;;2.27;;
6667;SDS011;3370;47.712;9.082;2024-03-29T06:00:16;3.13;;;1.77;;
6667;SDS011;3370;47.712;9.082;2024-03-29T06:03:02;2.00;;;1.90;;
6667;SDS011;3370;47.712;9.082;2024-03-29T06:05:48;2.10;;;2.00;;
6667;SDS011;3370;47.712;9.082;2024-03-29T06:08:34;2.20;;;1.83;;
6667;SDS011;3370;47.712;9.082;2024-03-29T06:11:20;1.70;;;1.60;;
6667;SDS011;3370;47.712;9.082;2024-03-29T06:14:06;2.43;;;2.23;;
6667;SDS011;3370;47.712;9.082;2024-03-29T06:16:52;3.03;;;1.83;;
6667;SDS011;3370;47.712;9.082;2024-03-29T06:19:57;2.33;;;2.17;;
6667;SDS011;3370;47.712;9.082;2024-03-29T06:22:45;2.10;;;1.70;;
6667;SDS011;3370;47.712;9.082;2024-03-29T06:25:31;4.63;;;1.80;;
6667;SDS011;3370;47.712;9.082;2024-03-29T06:28:17;1.90;;;1.80;;
6667;SDS011;3370;47.712;9.082;2024-03-29T06:31:03;3.30;;;2.00;;
6667;SDS011;3370;47.712;9.082;2024-03-29T06:33:49;2.30;;;2.20;;
6667;SDS011;3370;47.712;9.082;2024-03-29T06:36:35;2.80;;;2.60;;
6667;SDS011;3370;47.712;9.082;2024-03-29T06:39:23;2.30;;;2.00;;
6667;SDS011;3370;47.712;9.082;2024-03-29T06:42:11;3.13;;;2.13;;
6667;SDS011;3370;47.712;9.082;2024-03-29T06:44:57;2.20;;;2.10;;
6667;SDS011;3370;47.712;9.082;2024-03-29T06:47:44;2.23;;;2.13;;
6667;SDS011;3370;47.712;9.082;2024-03-29T06:50:30;2.63;;;2.43;;
6667;SDS011;3370;47.712;9.082;2024-03-29T06:53:16;3.23;;;2.40;;
6667;SDS011;3370;47.712;9.082;2024-03-29T06:56:02;1.87;;;1.77;;
6667;SDS011;3370;47.712;9.082;2024-03-29T06:58:48;2.17;;;2.00;;
6667;SDS011;3370;47.712;9.082;2024-03-29T07:01:34;3.30;;;2.70;;
6667;SDS011;3370;47.712;9.082;2024-03-29T07:04:22;2.03;;;1.93;;
6667;SDS011;3370;47.712;9.082;2024-03-29T07:07:09;3.17;;;1.83;;
6667;SDS011;3370;47.712;9.082;2024-03-29T07:09:55;2.07;;;1.97;;
6667;SDS011;3370;47.712;9.082;2024-03-29T07:12:42;1.67;;;1.57;;
6667;SDS011;3370;47.712;9.082;2024-03-29T07:15:28;1.90;;;1.80;;
6667;SDS011;3370;47.712;9.082;2024-03-29T07:18:14;1.63;;;1.53;;
6667;SDS011;3370;47.712;9.082;2024-03-29T07:21:00;1.90;;;1.80;;
6667;SDS011;3370;47.712;9.082;2024-03-29T07:23:46;2.40;;;1.87;;
6667;SDS011;3370;47.712;9.082;2024-03-29T07:26:33;1.83;;;1.73;;
6667;SDS011;3370;47.712;9.082;2024-03-29T07:29:19;1.77;;;1.67;;
6667;SDS011;3370;47.712;9.082;2024-03-29T07:32:05;3.83;;;1.80;;
6667;SDS011;3370;47.712;9.082;2024-03-29T07:34:52;1.60;;;1.50;;
6667;SDS011;3370;47.712;9.082;2024-03-29T07:37:38;1.70;;;1.60;;
6667;SDS011;3370;47.712;9.082;2024-03-29T07:40:25;3.30;;;1.80;;
6667;SDS011;3370;47.712;9.082;2024-03-29T07:43:11;2.37;;;1.70;;
6667;SDS011;3370;47.712;9.082;2024-03-29T07:45:59;2.00;;;1.67;;
6667;SDS011;3370;47.712;9.082;2024-03-29T07:48:45;1.70;;;1.60;;
6667;SDS011;3370;47.712;9.082;2024-03-29T07:51:31;2.30;;;2.10;;
6667;SDS011;3370;47.712;9.082;2024-03-29T07:54:17;1.87;;;1.73;;
6667;SDS011;3370;47.712;9.082;2024-03-29T07:57:03;1.87;;;1.77;;
6667;SDS011;3370;47.712;9.082;2024-03-29T07:59:50;1.77;;;1.67;;
6667;SDS011;3370;47.712;9.082;2024-03-29T08:02:36;3.07;;;1.80;;
6667;SDS011;3370;47.712;9.082;2024-03-29T08:05:23;1.73;;;1.63;;
6667;SDS011;3370;47.712;9.082;2024-03-29T08:08:09;1.60;;;1.50;;
6667;SDS011;3370;47.712;9.082;2024-03-29T08:10:56;1.47;;;1.47;;
6667;SDS011;3370;47.712;9.082;2024-03-29T08:13:42;2.57;;;1.60;;
6667;SDS011;3370;47.712;9.082;2024-03-29T08:16:28;1.60;;;1.50;;
6667;SDS011;3370;47.712;9.082;2024-03-29T08:19:14;2.40;;;1.30;;
6667;SDS011;3370;47.712;9.082;2024-03-29T08:22:00;3.90;;;1.93;;
6667;SDS011;3370;47.712;9.082;2024-03-29T08:24:46;3.03;;;1.93;;
6667;SDS011;3370;47.712;9.082;2024-03-29T08:27:33;2.27;;;1.87;;
6667;SDS011;3370;47.712;9.082;2024-03-29T08:30:19;3.60;;;1.67;;
6667;SDS011;3370;47.712;9.082;2024-03-29T08:33:05;1.83;;;1.70;;
6667;SDS011;3370;47.712;9.082;2024-03-29T08:35:52;1.83;;;1.73;;
6667;SDS011;3370;47.712;9.082;2024-03-29T08:38:38;2.70;;;2.40;;
6667;SDS011;3370;47.712;9.082;2024-03-29T08:41:27;2.30;;;2.20;;
6667;SDS011;3370;47.712;9.082;2024-03-29T08:44:14;2.20;;;2.10;;
6667;SDS011;3370;47.712;9.082;2024-03-29T08:47:00;5.60;;;2.00;;
6667;SDS011;3370;47.712;9.082;2024-03-29T08:49:46;2.20;;;2.00;;
6667;SDS011;3370;47.712;9.082;2024-03-29T08:52:32;2.00;;;1.90;;
6667;SDS011;3370;47.712;9.082;2024-03-29T08:55:18;3.63;;;1.50;;
6667;SDS011;3370;47.712;9.082;2024-03-29T08:58:04;1.50;;;1.50;;
6667;SDS011;3370;47.712;9.082;2024-03-29T09:00:54;3.47;;;1.50;;
6667;SDS011;3370;47.712;9.082;2024-03-29T09:03:41;2.30;;;1.70;;
6667;SDS011;3370;47.712;9.082;2024-03-29T09:06:27;2.23;;;2.00;;
6667;SDS011;3370;47.712;9.082;2024-03-29T09:09:13;1.97;;;1.87;;
6667;SDS011;3370;47.712;9.082;2024-03-29T09:11:59;1.70;;;1.60;;
6667;SDS011;3370;47.712;9.082;2024-03-29T09:14:45;1.70;;;1.40;;
6667;SDS011;3370;47.712;9.082;2024-03-29T09:17:31;1.90;;;1.50;;
6667;SDS011;3370;47.712;9.082;2024-03-29T09:20:17;1.77;;;1.63;;
6667;SDS011;3370;47.712;9.082;2024-03-29T09:23:04;2.27;;;1.40;;
6667;SDS011;3370;47.712;9.082;2024-03-29T09:25:50;2.53;;;1.60;;
6667;SDS011;3370;47.712;9.082;2024-03-29T09:28:36;1.80;;;1.70;;
6667;SDS011;3370;47.712;9.082;2024-03-29T09:31:23;1.53;;;1.30;;
6667;SDS011;3370;47.712;9.082;2024-03-29T09:34:09;3.60;;;1.97;;
6667;SDS011;3370;47.712;9.082;2024-03-29T09:36:55;2.30;;;1.80;;
6667;SDS011;3370;47.712;9.082;2024-03-29T09:39:41;1.57;;;1.37;;
6667;SDS011;3370;47.712;9.082;2024-03-29T09:42:27;3.60;;;1.90;;
6667;SDS011;3370;47.712;9.082;2024-03-29T09:45:16;1.63;;;1.40;;
6667;SDS011;3370;47.712;9.082;2024-03-29T09:48:04;2.17;;;2.07;;
6667;SDS011;3370;47.712;9.082;2024-03-29T09:50:52;3.50;;;1.60;;
6667;SDS011;3370;47.712;9.082;2024-03-29T09:53:42;6.90;;;1.57;;
6667;SDS011;3370;47.712;9.082;2024-03-29T09:56:31;3.03;;;1.40;;
6667;SDS011;3370;47.712;9.082;2024-03-29T09:59:17;2.03;;;1.87;;
6667;SDS011;3370;47.712;9.082;2024-03-29T10:02:04;1.70;;;1.60;;
6667;SDS011;3370;47.712;9.082;2024-03-29T10:05:05;1.70;;;1.60;;
6667;SDS011;3370;47.712;9.082;2024-03-29T10:07:53;1.83;;;1.40;;
6667;SDS011;3370;47.712;9.082;2024-03-29T10:10:40;1.80;;;1.70;;
6667;SDS011;3370;47.712;9.082;2024-03-29T10:13:27;1.70;;;1.23;;
6667;SDS011;3370;47.712;9.082;2024-03-29T10:16:13;1.57;;;1.47;;
6667;SDS011;3370;47.712;9.082;2024-03-29T10:19:04;4.53;;;1.53;;
6667;SDS011;3370;47.712;9.082;2024-03-29T10:21:52;1.30;;;1.20;;
6667;SDS011;3370;47.712;9.082;2024-03-29T10:24:38;3.07;;;1.63;;
6667;SDS011;3370;47.712;9.082;2024-03-29T10:27:25;1.60;;;1.50;;
6667;SDS011;3370;47.712;9.082;2024-03-29T10:30:12;1.60;;;1.50;;
6667;SDS011;3370;47.712;9.082;2024-03-29T10:33:05;4.60;;;1.50;;
6667;SDS011;3370;47.712;9.082;2024-03-29T10:35:51;1.50;;;1.40;;
6667;SDS011;3370;47.712;9.082;2024-03-29T10:38:37;1.63;;;1.53;;
6667;SDS011;3370;47.712;9.082;2024-03-29T10:41:24;1.20;;;1.17;;
6667;SDS011;3370;47.712;9.082;2024-03-29T10:44:11;1.37;;;1.10;;
6667;SDS011;3370;47.712;9.082;2024-03-29T10:46:58;1.30;;;1.20;;
6667;SDS011;3370;47.712;9.082;2024-03-29T10:49:48;1.00;;;1.00;;
6667;SDS011;3370;47.712;9.082;2024-03-29T10:52:36;1.00;;;0.90;;
6667;SDS011;3370;47.712;9.082;2024-03-29T10:55:23;1.20;;;1.10;;
6667;SDS011;3370;47.712;9.082;2024-03-29T10:58:10;2.83;;;0.93;;
6667;SDS011;3370;47.712;9.082;2024-03-29T11:00:57;0.90;;;0.90;;
6667;SDS011;3370;47.712;9.082;2024-03-29T11:03:44;1.27;;;1.20;;
6667;SDS011;3370;47.712;9.082;2024-03-29T11:06:38;3.03;;;1.20;;
6667;SDS011;3370;47.712;9.082;2024-03-29T11:09:27;1.20;;;1.10;;
6667;SDS011;3370;47.712;9.082;2024-03-29T11:12:16;5.30;;;1.40;;
6667;SDS011;3370;47.712;9.082;2024-03-29T11:15:04;1.07;;;1.07;;
6667;SDS011;3370;47.712;9.082;2024-03-29T11:17:56;1.07;;;1.07;;
6667;SDS011;3370;47.712;9.082;2024-03-29T11:20:43;3.87;;;1.13;;
6667;SDS011;3370;47.712;9.082;2024-03-29T11:23:36;1.97;;;1.30;;
6667;SDS011;3370;47.712;9.082;2024-03-29T11:26:23;1.77;;;1.00;;
6667;SDS011;3370;47.712;9.082;2024-03-29T11:29:21;2.83;;;1.70;;
6667;SDS011;3370;47.712;9.082;2024-03-29T11:32:09;1.50;;;1.40;;
6667;SDS011;3370;47.712;9.082;2024-03-29T11:34:55;1.40;;;1.30;;
6667;SDS011;3370;47.712;9.082;2024-03-29T11:37:42;3.03;;;1.03;;
6667;SDS011;3370;47.712;9.082;2024-03-29T11:40:31;1.77;;;1.20;;
6667;SDS011;3370;47.712;9.082;2024-03-29T11:43:17;1.63;;;1.27;;
6667;SDS011;3370;47.712;9.082;2024-03-29T11:46:05;1.50;;;1.00;;
6667;SDS011;3370;47.712;9.082;2024-03-29T11:48:53;0.90;;;0.90;;
6667;SDS011;3370;47.712;9.082;2024-03-29T11:51:40;1.30;;;1.20;;
6667;SDS011;3370;47.712;9.082;2024-03-29T11:54:27;1.00;;;1.00;;
6667;SDS011;3370;47.712;9.082;2024-03-29T11:57:13;2.00;;;1.10;;
6667;SDS011;3370;47.712;9.082;2024-03-29T11:59:59;9.30;;;1.30;;
6667;SDS011;3370;47.712;9.082;2024-03-29T12:02:45;1.63;;;1.30;;
6667;SDS011;3370;47.712;9.082;2024-03-29T12:05:32;1.30;;;1.20;;
6667;SDS011;3370;47.712;9.082;2024-03-29T12:08:18;1.47;;;1.37;;
6667;SDS011;3370;47.712;9.082;2024-03-29T12:11:05;1.10;;;0.98;;
6667;SDS011;3370;47.712;9.082;2024-03-29T12:13:51;1.43;;;1.33;;
6667;SDS011;3370;47.712;9.082;2024-03-29T12:16:44;1.47;;;1.37;;
6667;SDS011;3370;47.712;9.082;2024-03-29T12:19:31;0.90;;;0.90;;
6667;SDS011;3370;47.712;9.082;2024-03-29T12:22:21;0.70;;;0.70;;
6667;SDS011;3370;47.712;9.082;2024-03-29T12:25:07;0.90;;;0.90;;
6667;SDS011;3370;47.712;9.082;2024-03-29T12:27:54;3.57;;;1.20;;
6667;SDS011;3370;47.712;9.082;2024-03-29T12:30:41;2.80;;;1.07;;
6667;SDS011;3370;47.712;9.082;2024-03-29T12:33:33;1.40;;;1.30;;
6667;SDS011;3370;47.712;9.082;2024-03-29T12:36:22;5.27;;;1.80;;
6667;SDS011;3370;47.712;9.082;2024-03-29T12:39:12;2.00;;;1.77;;
6667;SDS011;3370;47.712;9.082;2024-03-29T12:41:58;1.43;;;1.17;;
6667;SDS011;3370;47.712;9.082;2024-03-29T12:44:46;0.90;;;0.90;;
6667;SDS011;3370;47.712;9.082;2024-03-29T12:47:32;0.80;;;0.70;;
6667;SDS011;3370;47.712;9.082;2024-03-29T12:50:31;1.10;;;1.10;;
6667;SDS011;3370;47.712;9.082;2024-03-29T12:53:18;0.90;;;0.90;;
6667;SDS011;3370;47.712;9.082;2024-03-29T12:56:04;4.10;;;1.30;;
6667;SDS011;3370;47.712;9.082;2024-03-29T12:58:50;1.87;;;1.00;;
6667;SDS011;3370;47.712;9.082;2024-03-29T13:01:36;1.30;;;1.17;;
6667;SDS011;3370;47.712;9.082;2024-03-29T13:04:23;2.03;;;1.10;;
6667;SDS011;3370;47.712;9.082;2024-03-29T13:07:09;2.00;;;0.97;;
6667;SDS011;3370;47.712;9.082;2024-03-29T13:09:59;1.20;;;1.10;;
6667;SDS011;3370;47.712;9.082;2024-03-29T13:12:48;3.03;;;1.17;;
6667;SDS011;3370;47.712;9.082;2024-03-29T13:15:38;0.93;;;0.93;;
6667;SDS011;3370;47.712;9.082;2024-03-29T13:18:26;2.33;;;1.20;;
6667;SDS011;3370;47.712;9.082;2024-03-29T13:21:12;3.37;;;1.17;;
6667;SDS011;3370;47.712;9.082;2024-03-29T13:23:58;1.00;;;1.00;;
6667;SDS011;3370;47.712;9.082;2024-03-29T13:26:44;0.90;;;0.90;;
6667;SDS011;3370;47.712;9.082;2024-03-29T13:29:31;1.23;;;1.13;;
6667;SDS011;3370;47.712;9.082;2024-03-29T13:32:17;1.00;;;1.00;;
6667;SDS011;3370;47.712;9.082;2024-03-29T13:35:03;7.47;;;1.27;;
6667;SDS011;3370;47.712;9.082;2024-03-29T13:37:51;1.03;;;0.93;;
6667;SDS011;3370;47.712;9.082;2024-03-29T13:40:40;3.83;;;1.03;;
6667;SDS011;3370;47.712;9.082;2024-03-29T13:43:27;3.03;;;1.10;;
6667;SDS011;3370;47.712;9.082;2024-03-29T13:46:13;1.00;;;0.90;;
6667;SDS011;3370;47.712;9.082;2024-03-29T13:49:00;1.40;;;0.83;;
6667;SDS011;3370;47.712;9.082;2024-03-29T13:51:47;0.70;;;0.70;;
6667;SDS011;3370;47.712;9.082;2024-03-29T13:54:33;0.90;;;0.90;;
6667;SDS011;3370;47.712;9.082;2024-03-29T13:57:19;0.90;;;0.90;;
6667;SDS011;3370;47.712;9.082;2024-03-29T14:00:06;0.77;;;0.73;;
6667;SDS011;3370;47.712;9.082;2024-03-29T14:02:53;0.90;;;0.80;;
6667;SDS011;3370;47.712;9.082;2024-03-29T14:05:39;1.07;;;0.97;;
6667;SDS011;3370;47.712;9.082;2024-03-29T14:08:25;0.70;;;0.70;;
6667;SDS011;3370;47.712;9.082;2024-03-29T14:11:11;1.10;;;1.00;;
6667;SDS011;3370;47.712;9.082;2024-03-29T14:13:59;1.33;;;1.00;;
6667;SDS011;3370;47.712;9.082;2024-03-29T14:16:45;0.80;;;0.77;;
6667;SDS011;3370;47.712;9.082;2024-03-29T14:19:32;0.70;;;0.70;;
6667;SDS011;3370;47.712;9.082;2024-03-29T14:22:21;3.53;;;0.80;;
6667;SDS011;3370;47.712;9.082;2024-03-29T14:25:09;0.90;;;0.90;;
6667;SDS011;3370;47.712;9.082;2024-03-29T14:27:55;4.30;;;0.80;;
6667;SDS011;3370;47.712;9.082;2024-03-29T14:30:44;0.80;;;0.80;;
6667;SDS011;3370;47.712;9.082;2024-03-29T14:33:30;2.60;;;1.00;;
6667;SDS011;3370;47.712;9.082;2024-03-29T14:36:16;0.60;;;0.60;;
6667;SDS011;3370;47.712;9.082;2024-03-29T14:39:02;0.73;;;0.73;;
6667;SDS011;3370;47.712;9.082;2024-03-29T14:41:48;4.20;;;0.80;;
6667;SDS011;3370;47.712;9.082;2024-03-29T14:44:38;2.20;;;0.90;;
6667;SDS011;3370;47.712;9.082;2024-03-29T14:47:24;0.80;;;0.80;;
6667;SDS011;3370;47.712;9.082;2024-03-29T14:50:10;1.30;;;1.00;;
6667;SDS011;3370;47.712;9.082;2024-03-29T14:52:56;0.68;;;0.50;;
6667;SDS011;3370;47.712;9.082;2024-03-29T14:55:43;0.80;;;0.80;;
6667;SDS011;3370;47.712;9.082;2024-03-29T14:58:29;0.87;;;0.87;;
6667;SDS011;3370;47.712;9.082;2024-03-29T15:01:16;0.70;;;0.70;;
6667;SDS011;3370;47.712;9.082;2024-03-29T15:04:02;0.70;;;0.70;;
6667;SDS011;3370;47.712;9.082;2024-03-29T15:06:48;4.87;;;1.20;;
6667;SDS011;3370;47.712;9.082;2024-03-29T15:09:34;1.30;;;0.90;;
6667;SDS011;3370;47.712;9.082;2024-03-29T15:12:20;1.00;;;0.70;;
6667;SDS011;3370;47.712;9.082;2024-03-29T15:15:07;1.83;;;0.60;;
6667;SDS011;3370;47.712;9.082;2024-03-29T15:17:53;0.80;;;0.80;;
6667;SDS011;3370;47.712;9.082;2024-03-29T15:20:40;1.50;;;0.90;;
6667;SDS011;3370;47.712;9.082;2024-03-29T15:23:27;0.70;;;0.70;;
6667;SDS011;3370;47.712;9.082;2024-03-29T15:26:13;0.73;;;0.73;;
6667;SDS011;3370;47.712;9.082;2024-03-29T15:29:01;0.73;;;0.73;;
6667;SDS011;3370;47.712;9.082;2024-03-29T15:31:53;0.83;;;0.83;;
6667;SDS011;3370;47.712;9.082;2024-03-29T15:34:40;1.23;;;0.80;;
6667;SDS011;3370;47.712;9.082;2024-03-29T15:37:26;0.77;;;0.60;;
6667;SDS011;3370;47.712;9.082;2024-03-29T15:40:12;1.23;;;0.73;;
6667;SDS011;3370;47.712;9.082;2024-03-29T15:42:59;7.33;;;1.27;;
6667;SDS011;3370;47.712;9.082;2024-03-29T15:45:45;1.60;;;0.90;;
6667;SDS011;3370;47.712;9.082;2024-03-29T15:48:31;2.20;;;0.90;;
6667;SDS011;3370;47.712;9.082;2024-03-29T15:51:17;1.50;;;1.13;;
6667;SDS011;3370;47.712;9.082;2024-03-29T15:54:03;1.10;;;0.80;;
6667;SDS011;3370;47.712;9.082;2024-03-29T15:56:51;0.90;;;0.90;;
6667;SDS011;3370;47.712;9.082;2024-03-29T15:59:38;2.40;;;1.57;;
6667;SDS011;3370;47.712;9.082;2024-03-29T16:02:25;2.20;;;0.83;;
6667;SDS011;3370;47.712;9.082;2024-03-29T16:05:11;1.27;;;1.10;;
6667;SDS011;3370;47.712;9.082;2024-03-29T16:07:57;5.90;;;1.33;;
6667;SDS011;3370;47.712;9.082;2024-03-29T16:13:49;1.10;;;1.10;;
6667;SDS011;3370;47.712;9.082;2024-03-29T16:16:35;1.80;;;1.27;;
6667;SDS011;3370;47.712;9.082;2024-03-29T16:19:21;5.53;;;1.40;;
6667;SDS011;3370;47.712;9.082;2024-03-29T16:22:07;2.77;;;1.23;;
6667;SDS011;3370;47.712;9.082;2024-03-29T16:24:54;6.23;;;1.80;;
6667;SDS011;3370;47.712;9.082;2024-03-29T16:27:40;2.90;;;1.63;;
6667;SDS011;3370;47.712;9.082;2024-03-29T16:30:26;2.73;;;2.10;;
6667;SDS011;3370;47.712;9.082;2024-03-29T16:33:12;3.43;;;1.70;;
6667;SDS011;3370;47.712;9.082;2024-03-29T16:35:58;6.43;;;1.90;;
6667;SDS011;3370;47.712;9.082;2024-03-29T16:38:45;3.20;;;1.63;;
6667;SDS011;3370;47.712;9.082;2024-03-29T16:41:31;16.23;;;1.60;;
6667;SDS011;3370;47.712;9.082;2024-03-29T16:44:17;1.13;;;1.03;;
6667;SDS011;3370;47.712;9.082;2024-03-29T16:47:03;4.03;;;1.20;;
6667;SDS011;3370;47.712;9.082;2024-03-29T16:49:49;3.07;;;1.43;;
6667;SDS011;3370;47.712;9.082;2024-03-29T16:52:35;6.77;;;1.40;;
6667;SDS011;3370;47.712;9.082;2024-03-29T16:55:21;1.70;;;1.60;;
6667;SDS011;3370;47.712;9.082;2024-03-29T16:58:07;5.70;;;1.73;;
6667;SDS011;3370;47.712;9.082;2024-03-29T17:00:53;2.00;;;1.40;;
6667;SDS011;3370;47.712;9.082;2024-03-29T17:03:40;1.90;;;1.50;;
6667;SDS011;3370;47.712;9.082;2024-03-29T17:06:26;1.37;;;1.30;;
6667;SDS011;3370;47.712;9.082;2024-03-29T17:12:22;1.87;;;1.57;;
6667;SDS011;3370;47.712;9.082;2024-03-29T17:15:11;2.80;;;1.70;;
6667;SDS011;3370;47.712;9.082;2024-03-29T17:17:57;15.03;;;2.70;;
6667;SDS011;3370;47.712;9.082;2024-03-29T17:20:44;8.90;;;1.93;;
6667;SDS011;3370;47.712;9.082;2024-03-29T17:23:31;3.53;;;1.67;;